sensor_id;sensor_type;location;lat;lon;timestamp;P1;durP1;ratioP1;P2;durP2;ratioP2
12846;SDS011;6492;48.128;8.320;2023-04-03T00:03:14;162.57;;;18.90;;
12846;SDS011;6492;48.128;8.320;2023-04-03T00:07:16;50.07;;;10.40;;
12846;SDS011;6492;48.128;8.320;2023-04-03T00:11:18;23.00;;;6.37;;
12846;SDS011;6492;48.128;8.320;2023-04-03T00:15:20;7.33;;;5.33;;
12846;SDS011;6492;48.128;8.320;2023-04-03T00:19:23;7.50;;;5.57;;
12846;SDS011;6492;48.128;8.320;2023-04-03T00:23:25;7.80;;;5.60;;
12846;SDS011;6492;48.128;8.320;2023-04-03T00:27:27;6.70;;;5.93;;
12846;SDS011;6492;48.128;8.320;2023-04-03T00:31:29;9.33;;;7.60;;
12846;SDS011;6492;48.128;8.320;2023-04-03T00:35:33;7.00;;;5.73;;
12846;SDS011;6492;48.128;8.320;2023-04-03T00:39:35;6.80;;;5.97;;
12846;SDS011;6492;48.128;8.320;2023-04-03T00:43:37;7.50;;;5.43;;
12846;SDS011;6492;48.128;8.320;2023-04-03T00:47:39;7.70;;;5.93;;
12846;SDS011;6492;48.128;8.320;2023-04-03T00:51:44;6.27;;;5.47;;
12846;SDS011;6492;48.128;8.320;2023-04-03T00:55:46;6.10;;;5.17;;
12846;SDS011;6492;48.128;8.320;2023-04-03T00:59:50;8.63;;;5.33;;
12846;SDS011;6492;48.128;8.320;2023-04-03T01:03:57;7.10;;;5.97;;
12846;SDS011;6492;48.128;8.320;2023-04-03T01:08:04;9.90;;;6.27;;
12846;SDS011;6492;48.128;8.320;2023-04-03T01:12:13;6.30;;;5.70;;
12846;SDS011;6492;48.128;8.320;2023-04-03T01:16:16;6.83;;;5.67;;
12846;SDS011;6492;48.128;8.320;2023-04-03T01:20:31;12.73;;;6.60;;
12846;SDS011;6492;48.128;8.320;2023-04-03T01:25:01;11.70;;;6.20;;
12846;SDS011;6492;48.128;8.320;2023-04-03T01:29:03;6.93;;;5.30;;
12846;SDS011;6492;48.128;8.320;2023-04-03T01:33:06;5.80;;;5.07;;
12846;SDS011;6492;48.128;8.320;2023-04-03T01:37:08;6.20;;;5.37;;
12846;SDS011;6492;48.128;8.320;2023-04-03T01:41:11;7.50;;;4.87;;
12846;SDS011;6492;48.128;8.320;2023-04-03T01:45:13;5.10;;;4.60;;
12846;SDS011;6492;48.128;8.320;2023-04-03T01:49:16;6.97;;;5.30;;
12846;SDS011;6492;48.128;8.320;2023-04-03T01:53:18;5.33;;;4.60;;
12846;SDS011;6492;48.128;8.320;2023-04-03T01:57:20;5.53;;;4.40;;
12846;SDS011;6492;48.128;8.320;2023-04-03T02:01:22;6.10;;;5.07;;
12846;SDS011;6492;48.128;8.320;2023-04-03T02:05:25;6.57;;;5.57;;
12846;SDS011;6492;48.128;8.320;2023-04-03T02:09:27;6.03;;;5.17;;
12846;SDS011;6492;48.128;8.320;2023-04-03T02:13:28;5.37;;;4.87;;
12846;SDS011;6492;48.128;8.320;2023-04-03T02:17:30;8.63;;;5.47;;
12846;SDS011;6492;48.128;8.320;2023-04-03T02:21:33;12.13;;;5.33;;
12846;SDS011;6492;48.128;8.320;2023-04-03T02:25:35;7.77;;;4.60;;
12846;SDS011;6492;48.128;8.320;2023-04-03T02:29:37;7.27;;;5.50;;
12846;SDS011;6492;48.128;8.320;2023-04-03T02:33:39;21.13;;;6.47;;
12846;SDS011;6492;48.128;8.320;2023-04-03T02:37:42;30.57;;;7.00;;
12846;SDS011;6492;48.128;8.320;2023-04-03T02:41:44;8.90;;;5.60;;
12846;SDS011;6492;48.128;8.320;2023-04-03T02:45:46;26.23;;;7.93;;
12846;SDS011;6492;48.128;8.320;2023-04-03T02:49:48;16.93;;;6.27;;
12846;SDS011;6492;48.128;8.320;2023-04-03T02:53:51;9.83;;;5.50;;
12846;SDS011;6492;48.128;8.320;2023-04-03T02:57:53;62.07;;;12.03;;
12846;SDS011;6492;48.128;8.320;2023-04-03T03:01:54;19.33;;;6.10;;
12846;SDS011;6492;48.128;8.320;2023-04-03T03:06:03;50.87;;;8.27;;
12846;SDS011;6492;48.128;8.320;2023-04-03T03:10:07;27.10;;;9.50;;
12846;SDS011;6492;48.128;8.320;2023-04-03T03:14:09;12.70;;;6.43;;
12846;SDS011;6492;48.128;8.320;2023-04-03T03:18:11;13.00;;;6.27;;
12846;SDS011;6492;48.128;8.320;2023-04-03T03:22:13;14.47;;;6.50;;
12846;SDS011;6492;48.128;8.320;2023-04-03T03:26:16;7.13;;;6.23;;
12846;SDS011;6492;48.128;8.320;2023-04-03T03:30:18;7.63;;;6.43;;
12846;SDS011;6492;48.128;8.320;2023-04-03T03:34:20;9.13;;;6.90;;
12846;SDS011;6492;48.128;8.320;2023-04-03T03:38:22;8.43;;;6.57;;
12846;SDS011;6492;48.128;8.320;2023-04-03T03:42:25;9.03;;;7.67;;
12846;SDS011;6492;48.128;8.320;2023-04-03T03:46:27;8.53;;;7.00;;
12846;SDS011;6492;48.128;8.320;2023-04-03T03:50:29;14.43;;;7.23;;
12846;SDS011;6492;48.128;8.320;2023-04-03T03:54:31;14.33;;;8.07;;
12846;SDS011;6492;48.128;8.320;2023-04-03T03:58:34;10.13;;;8.00;;
12846;SDS011;6492;48.128;8.320;2023-04-03T04:02:35;9.83;;;7.60;;
12846;SDS011;6492;48.128;8.320;2023-04-03T04:06:37;8.77;;;7.63;;
12846;SDS011;6492;48.128;8.320;2023-04-03T04:10:39;10.70;;;8.13;;
12846;SDS011;6492;48.128;8.320;2023-04-03T04:14:42;17.40;;;13.23;;
12846;SDS011;6492;48.128;8.320;2023-04-03T04:18:46;10.93;;;8.67;;
12846;SDS011;6492;48.128;8.320;2023-04-03T04:22:48;10.60;;;8.80;;
12846;SDS011;6492;48.128;8.320;2023-04-03T04:26:50;10.63;;;8.43;;
12846;SDS011;6492;48.128;8.320;2023-04-03T04:30:53;11.93;;;8.97;;
12846;SDS011;6492;48.128;8.320;2023-04-03T04:34:54;17.60;;;10.13;;
12846;SDS011;6492;48.128;8.320;2023-04-03T04:38:56;16.87;;;10.17;;
12846;SDS011;6492;48.128;8.320;2023-04-03T04:42:58;12.47;;;9.30;;
12846;SDS011;6492;48.128;8.320;2023-04-03T04:47:01;12.33;;;8.50;;
12846;SDS011;6492;48.128;8.320;2023-04-03T04:51:03;12.63;;;9.60;;
12846;SDS011;6492;48.128;8.320;2023-04-03T04:55:05;13.17;;;9.27;;
12846;SDS011;6492;48.128;8.320;2023-04-03T04:59:08;14.17;;;10.70;;
12846;SDS011;6492;48.128;8.320;2023-04-03T05:03:13;11.97;;;9.27;;
12846;SDS011;6492;48.128;8.320;2023-04-03T05:07:15;13.97;;;9.50;;
12846;SDS011;6492;48.128;8.320;2023-04-03T05:11:17;12.90;;;9.30;;
12846;SDS011;6492;48.128;8.320;2023-04-03T05:15:18;10.43;;;8.23;;
12846;SDS011;6492;48.128;8.320;2023-04-03T05:19:21;13.33;;;8.80;;
12846;SDS011;6492;48.128;8.320;2023-04-03T05:23:23;13.07;;;9.50;;
12846;SDS011;6492;48.128;8.320;2023-04-03T05:27:25;12.50;;;9.23;;
12846;SDS011;6492;48.128;8.320;2023-04-03T05:31:28;11.80;;;8.83;;
12846;SDS011;6492;48.128;8.320;2023-04-03T05:35:31;11.70;;;8.47;;
12846;SDS011;6492;48.128;8.320;2023-04-03T05:39:33;10.73;;;8.47;;
12846;SDS011;6492;48.128;8.320;2023-04-03T05:43:42;11.43;;;8.33;;
12846;SDS011;6492;48.128;8.320;2023-04-03T05:47:43;12.80;;;9.83;;
12846;SDS011;6492;48.128;8.320;2023-04-03T05:51:47;10.97;;;9.07;;
12846;SDS011;6492;48.128;8.320;2023-04-03T05:55:49;10.20;;;8.63;;
12846;SDS011;6492;48.128;8.320;2023-04-03T05:59:51;11.97;;;8.57;;
12846;SDS011;6492;48.128;8.320;2023-04-03T06:03:52;10.97;;;7.63;;
12846;SDS011;6492;48.128;8.320;2023-04-03T06:07:57;11.63;;;8.30;;
12846;SDS011;6492;48.128;8.320;2023-04-03T06:11:58;10.27;;;8.27;;
12846;SDS011;6492;48.128;8.320;2023-04-03T06:16:01;10.30;;;8.13;;
12846;SDS011;6492;48.128;8.320;2023-04-03T06:20:04;11.03;;;8.10;;
12846;SDS011;6492;48.128;8.320;2023-04-03T06:24:09;10.67;;;7.50;;
12846;SDS011;6492;48.128;8.320;2023-04-03T06:28:15;12.73;;;7.90;;
12846;SDS011;6492;48.128;8.320;2023-04-03T06:32:19;8.77;;;7.17;;
12846;SDS011;6492;48.128;8.320;2023-04-03T06:36:21;10.37;;;7.33;;
12846;SDS011;6492;48.128;8.320;2023-04-03T06:40:24;8.93;;;7.10;;
12846;SDS011;6492;48.128;8.320;2023-04-03T06:44:27;9.37;;;7.10;;
12846;SDS011;6492;48.128;8.320;2023-04-03T06:48:28;10.30;;;7.57;;
12846;SDS011;6492;48.128;8.320;2023-04-03T06:52:30;8.83;;;7.10;;
12846;SDS011;6492;48.128;8.320;2023-04-03T06:56:34;9.17;;;6.73;;
12846;SDS011;6492;48.128;8.320;2023-04-03T07:00:36;8.83;;;7.03;;
12846;SDS011;6492;48.128;8.320;2023-04-03T07:04:38;9.97;;;8.00;;
12846;SDS011;6492;48.128;8.320;2023-04-03T07:08:40;10.60;;;7.70;;
12846;SDS011;6492;48.128;8.320;2023-04-03T07:12:43;10.97;;;8.30;;
12846;SDS011;6492;48.128;8.320;2023-04-03T07:16:45;8.87;;;6.93;;
12846;SDS011;6492;48.128;8.320;2023-04-03T07:20:47;9.13;;;7.13;;
12846;SDS011;6492;48.128;8.320;2023-04-03T07:24:49;9.70;;;7.30;;
12846;SDS011;6492;48.128;8.320;2023-04-03T07:28:52;9.77;;;6.77;;
12846;SDS011;6492;48.128;8.320;2023-04-03T07:32:53;8.53;;;6.80;;
12846;SDS011;6492;48.128;8.320;2023-04-03T07:37:09;8.77;;;6.73;;
12846;SDS011;6492;48.128;8.320;2023-04-03T07:41:12;9.43;;;7.20;;
12846;SDS011;6492;48.128;8.320;2023-04-03T07:45:18;8.50;;;6.53;;
12846;SDS011;6492;48.128;8.320;2023-04-03T07:49:20;10.53;;;7.03;;
12846;SDS011;6492;48.128;8.320;2023-04-03T07:53:23;7.27;;;6.40;;
12846;SDS011;6492;48.128;8.320;2023-04-03T07:57:25;8.17;;;6.50;;
12846;SDS011;6492;48.128;8.320;2023-04-03T08:01:28;7.47;;;6.67;;
12846;SDS011;6492;48.128;8.320;2023-04-03T08:05:35;6.90;;;6.20;;
12846;SDS011;6492;48.128;8.320;2023-04-03T08:09:37;7.90;;;6.23;;
12846;SDS011;6492;48.128;8.320;2023-04-03T08:13:39;6.80;;;5.93;;
12846;SDS011;6492;48.128;8.320;2023-04-03T08:17:44;6.57;;;5.40;;
12846;SDS011;6492;48.128;8.320;2023-04-03T08:21:46;6.47;;;5.47;;
12846;SDS011;6492;48.128;8.320;2023-04-03T08:25:48;6.73;;;5.33;;
12846;SDS011;6492;48.128;8.320;2023-04-03T08:29:51;6.07;;;5.43;;
12846;SDS011;6492;48.128;8.320;2023-04-03T08:33:54;5.80;;;5.17;;
12846;SDS011;6492;48.128;8.320;2023-04-03T08:37:57;8.60;;;5.60;;
12846;SDS011;6492;48.128;8.320;2023-04-03T08:42:00;5.97;;;4.60;;
12846;SDS011;6492;48.128;8.320;2023-04-03T08:46:08;5.37;;;4.23;;
12846;SDS011;6492;48.128;8.320;2023-04-03T08:50:16;6.57;;;4.90;;
12846;SDS011;6492;48.128;8.320;2023-04-03T08:54:23;5.70;;;4.73;;
12846;SDS011;6492;48.128;8.320;2023-04-03T08:58:30;4.40;;;3.77;;
12846;SDS011;6492;48.128;8.320;2023-04-03T09:02:37;4.33;;;3.83;;
12846;SDS011;6492;48.128;8.320;2023-04-03T09:06:45;4.67;;;3.73;;
12846;SDS011;6492;48.128;8.320;2023-04-03T09:10:58;3.70;;;3.40;;
12846;SDS011;6492;48.128;8.320;2023-04-03T09:15:15;4.47;;;3.60;;
12846;SDS011;6492;48.128;8.320;2023-04-03T09:19:21;4.33;;;3.40;;
12846;SDS011;6492;48.128;8.320;2023-04-03T09:23:32;3.90;;;3.40;;
12846;SDS011;6492;48.128;8.320;2023-04-03T09:27:37;3.60;;;3.13;;
12846;SDS011;6492;48.128;8.320;2023-04-03T09:31:40;4.20;;;3.10;;
12846;SDS011;6492;48.128;8.320;2023-04-03T09:35:45;3.50;;;3.20;;
12846;SDS011;6492;48.128;8.320;2023-04-03T09:39:50;4.97;;;3.27;;
12846;SDS011;6492;48.128;8.320;2023-04-03T09:43:54;3.53;;;3.23;;
12846;SDS011;6492;48.128;8.320;2023-04-03T09:48:04;4.07;;;3.30;;
12846;SDS011;6492;48.128;8.320;2023-04-03T09:52:18;3.80;;;3.40;;
12846;SDS011;6492;48.128;8.320;2023-04-03T09:56:23;4.63;;;3.33;;
12846;SDS011;6492;48.128;8.320;2023-04-03T10:00:28;3.63;;;3.20;;
12846;SDS011;6492;48.128;8.320;2023-04-03T10:04:38;3.73;;;3.43;;
12846;SDS011;6492;48.128;8.320;2023-04-03T10:08:41;3.43;;;3.13;;
12846;SDS011;6492;48.128;8.320;2023-04-03T10:12:44;3.13;;;2.83;;
12846;SDS011;6492;48.128;8.320;2023-04-03T10:16:47;3.17;;;2.87;;
12846;SDS011;6492;48.128;8.320;2023-04-03T10:20:53;4.07;;;3.30;;
12846;SDS011;6492;48.128;8.320;2023-04-03T10:25:01;3.30;;;3.00;;
12846;SDS011;6492;48.128;8.320;2023-04-03T10:29:09;3.73;;;3.10;;
12846;SDS011;6492;48.128;8.320;2023-04-03T10:33:32;4.10;;;3.13;;
12846;SDS011;6492;48.128;8.320;2023-04-03T10:37:50;4.80;;;3.00;;
12846;SDS011;6492;48.128;8.320;2023-04-03T10:42:02;3.70;;;2.87;;
12846;SDS011;6492;48.128;8.320;2023-04-03T10:46:10;4.70;;;2.67;;
12846;SDS011;6492;48.128;8.320;2023-04-03T10:50:22;4.43;;;3.30;;
12846;SDS011;6492;48.128;8.320;2023-04-03T10:54:33;3.00;;;2.80;;
12846;SDS011;6492;48.128;8.320;2023-04-03T10:58:41;3.13;;;2.83;;
12846;SDS011;6492;48.128;8.320;2023-04-03T11:02:48;4.90;;;3.67;;
12846;SDS011;6492;48.128;8.320;2023-04-03T11:06:55;3.90;;;3.57;;
12846;SDS011;6492;48.128;8.320;2023-04-03T11:11:02;3.97;;;3.00;;
12846;SDS011;6492;48.128;8.320;2023-04-03T11:15:11;3.37;;;3.07;;
12846;SDS011;6492;48.128;8.320;2023-04-03T11:19:18;3.60;;;3.30;;
12846;SDS011;6492;48.128;8.320;2023-04-03T11:23:25;5.90;;;3.20;;
12846;SDS011;6492;48.128;8.320;2023-04-03T11:27:27;3.40;;;3.10;;
12846;SDS011;6492;48.128;8.320;2023-04-03T11:31:39;3.83;;;3.50;;
12846;SDS011;6492;48.128;8.320;2023-04-03T11:35:50;4.67;;;3.67;;
12846;SDS011;6492;48.128;8.320;2023-04-03T11:39:56;8.50;;;5.63;;
12846;SDS011;6492;48.128;8.320;2023-04-03T11:44:01;3.47;;;3.17;;
12846;SDS011;6492;48.128;8.320;2023-04-03T11:48:05;3.67;;;3.17;;
12846;SDS011;6492;48.128;8.320;2023-04-03T11:56:59;3.37;;;3.07;;
12846;SDS011;6492;48.128;8.320;2023-04-03T12:05:46;3.50;;;3.13;;
12846;SDS011;6492;48.128;8.320;2023-04-03T12:14:03;3.60;;;3.30;;
12846;SDS011;6492;48.128;8.320;2023-04-03T12:22:48;4.57;;;3.60;;
12846;SDS011;6492;48.128;8.320;2023-04-03T12:31:32;12.30;;;8.20;;
12846;SDS011;6492;48.128;8.320;2023-04-03T12:35:48;4.60;;;3.70;;
12846;SDS011;6492;48.128;8.320;2023-04-03T12:40:05;3.23;;;2.93;;
12846;SDS011;6492;48.128;8.320;2023-04-03T12:44:17;4.50;;;4.10;;
12846;SDS011;6492;48.128;8.320;2023-04-03T12:48:37;3.47;;;3.17;;
12846;SDS011;6492;48.128;8.320;2023-04-03T12:52:47;3.40;;;3.10;;
12846;SDS011;6492;48.128;8.320;2023-04-03T12:57:08;4.13;;;2.97;;
12846;SDS011;6492;48.128;8.320;2023-04-03T13:01:13;4.77;;;3.23;;
12846;SDS011;6492;48.128;8.320;2023-04-03T13:05:25;3.57;;;3.27;;
12846;SDS011;6492;48.128;8.320;2023-04-03T13:09:28;4.37;;;3.60;;
12846;SDS011;6492;48.128;8.320;2023-04-03T13:13:30;4.23;;;3.40;;
12846;SDS011;6492;48.128;8.320;2023-04-03T13:17:34;3.90;;;3.33;;
12846;SDS011;6492;48.128;8.320;2023-04-03T13:21:39;4.90;;;3.60;;
12846;SDS011;6492;48.128;8.320;2023-04-03T13:25:43;3.23;;;2.93;;
12846;SDS011;6492;48.128;8.320;2023-04-03T13:29:49;3.57;;;3.27;;
12846;SDS011;6492;48.128;8.320;2023-04-03T13:33:55;4.30;;;3.70;;
12846;SDS011;6492;48.128;8.320;2023-04-03T13:38:01;3.60;;;3.30;;
12846;SDS011;6492;48.128;8.320;2023-04-03T13:42:15;5.90;;;3.73;;
12846;SDS011;6492;48.128;8.320;2023-04-03T13:46:23;7.23;;;5.00;;
12846;SDS011;6492;48.128;8.320;2023-04-03T13:50:29;8.27;;;5.53;;
12846;SDS011;6492;48.128;8.320;2023-04-03T13:54:32;3.90;;;3.50;;
12846;SDS011;6492;48.128;8.320;2023-04-03T13:58:35;4.67;;;3.73;;
12846;SDS011;6492;48.128;8.320;2023-04-03T14:02:38;4.77;;;3.33;;
12846;SDS011;6492;48.128;8.320;2023-04-03T14:06:42;5.30;;;3.00;;
12846;SDS011;6492;48.128;8.320;2023-04-03T14:10:44;3.57;;;3.27;;
12846;SDS011;6492;48.128;8.320;2023-04-03T14:14:47;3.83;;;3.43;;
12846;SDS011;6492;48.128;8.320;2023-04-03T14:18:49;3.40;;;3.07;;
12846;SDS011;6492;48.128;8.320;2023-04-03T14:22:53;4.27;;;3.27;;
12846;SDS011;6492;48.128;8.320;2023-04-03T14:26:55;3.40;;;3.10;;
12846;SDS011;6492;48.128;8.320;2023-04-03T14:30:58;3.33;;;3.03;;
12846;SDS011;6492;48.128;8.320;2023-04-03T14:35:00;3.40;;;3.10;;
12846;SDS011;6492;48.128;8.320;2023-04-03T14:39:04;4.50;;;3.23;;
12846;SDS011;6492;48.128;8.320;2023-04-03T14:47:20;4.40;;;3.10;;
12846;SDS011;6492;48.128;8.320;2023-04-03T14:51:25;4.43;;;3.00;;
12846;SDS011;6492;48.128;8.320;2023-04-03T14:55:29;5.53;;;3.20;;
12846;SDS011;6492;48.128;8.320;2023-04-03T14:59:31;4.13;;;3.50;;
12846;SDS011;6492;48.128;8.320;2023-04-03T15:03:33;4.07;;;3.00;;
12846;SDS011;6492;48.128;8.320;2023-04-03T15:07:36;3.10;;;2.80;;
12846;SDS011;6492;48.128;8.320;2023-04-03T15:11:41;3.90;;;2.80;;
12846;SDS011;6492;48.128;8.320;2023-04-03T15:15:43;3.00;;;2.70;;
12846;SDS011;6492;48.128;8.320;2023-04-03T15:19:45;3.67;;;3.10;;
12846;SDS011;6492;48.128;8.320;2023-04-03T15:23:47;5.67;;;3.27;;
12846;SDS011;6492;48.128;8.320;2023-04-03T15:27:50;4.33;;;3.43;;
12846;SDS011;6492;48.128;8.320;2023-04-03T15:31:52;4.90;;;3.30;;
12846;SDS011;6492;48.128;8.320;2023-04-03T15:35:53;5.37;;;3.23;;
12846;SDS011;6492;48.128;8.320;2023-04-03T15:39:55;4.33;;;2.90;;
12846;SDS011;6492;48.128;8.320;2023-04-03T15:43:58;4.27;;;3.10;;
12846;SDS011;6492;48.128;8.320;2023-04-03T15:48:00;4.50;;;3.27;;
12846;SDS011;6492;48.128;8.320;2023-04-03T15:52:03;6.87;;;4.90;;
12846;SDS011;6492;48.128;8.320;2023-04-03T15:56:05;4.90;;;4.40;;
12846;SDS011;6492;48.128;8.320;2023-04-03T16:00:10;4.77;;;3.13;;
12846;SDS011;6492;48.128;8.320;2023-04-03T16:04:13;4.93;;;3.43;;
12846;SDS011;6492;48.128;8.320;2023-04-03T16:08:15;5.90;;;3.50;;
12846;SDS011;6492;48.128;8.320;2023-04-03T16:12:18;3.73;;;2.90;;
12846;SDS011;6492;48.128;8.320;2023-04-03T16:16:21;3.23;;;2.77;;
12846;SDS011;6492;48.128;8.320;2023-04-03T16:20:24;6.33;;;3.03;;
12846;SDS011;6492;48.128;8.320;2023-04-03T16:24:27;3.53;;;2.80;;
12846;SDS011;6492;48.128;8.320;2023-04-03T16:28:28;13.57;;;6.23;;
12846;SDS011;6492;48.128;8.320;2023-04-03T16:32:32;3.60;;;3.30;;
12846;SDS011;6492;48.128;8.320;2023-04-03T16:36:34;8.87;;;5.37;;
12846;SDS011;6492;48.128;8.320;2023-04-03T16:40:37;4.33;;;3.93;;
12846;SDS011;6492;48.128;8.320;2023-04-03T16:44:39;5.33;;;3.57;;
12846;SDS011;6492;48.128;8.320;2023-04-03T16:48:42;5.23;;;3.50;;
12846;SDS011;6492;48.128;8.320;2023-04-03T16:52:44;4.80;;;3.83;;
12846;SDS011;6492;48.128;8.320;2023-04-03T16:56:46;5.13;;;3.67;;
12846;SDS011;6492;48.128;8.320;2023-04-03T17:00:48;5.37;;;3.93;;
12846;SDS011;6492;48.128;8.320;2023-04-03T17:04:51;6.50;;;4.40;;
12846;SDS011;6492;48.128;8.320;2023-04-03T17:08:53;5.60;;;4.30;;
12846;SDS011;6492;48.128;8.320;2023-04-03T17:12:55;15.13;;;10.63;;
12846;SDS011;6492;48.128;8.320;2023-04-03T17:16:57;5.13;;;3.67;;
12846;SDS011;6492;48.128;8.320;2023-04-03T17:21:00;5.43;;;4.13;;
12846;SDS011;6492;48.128;8.320;2023-04-03T17:25:02;4.23;;;3.60;;
12846;SDS011;6492;48.128;8.320;2023-04-03T17:29:04;5.63;;;3.93;;
12846;SDS011;6492;48.128;8.320;2023-04-03T17:33:06;6.80;;;4.30;;
12846;SDS011;6492;48.128;8.320;2023-04-03T17:37:09;4.80;;;3.93;;
12846;SDS011;6492;48.128;8.320;2023-04-03T17:41:11;7.27;;;5.20;;
12846;SDS011;6492;48.128;8.320;2023-04-03T17:45:12;4.63;;;4.17;;
12846;SDS011;6492;48.128;8.320;2023-04-03T17:49:14;8.57;;;7.20;;
12846;SDS011;6492;48.128;8.320;2023-04-03T17:53:19;8.30;;;6.30;;
12846;SDS011;6492;48.128;8.320;2023-04-03T17:57:20;8.93;;;7.17;;
12846;SDS011;6492;48.128;8.320;2023-04-03T18:01:23;5.17;;;3.83;;
12846;SDS011;6492;48.128;8.320;2023-04-03T18:05:26;7.87;;;5.30;;
12846;SDS011;6492;48.128;8.320;2023-04-03T18:09:30;4.83;;;3.63;;
12846;SDS011;6492;48.128;8.320;2023-04-03T18:13:34;7.13;;;5.40;;
12846;SDS011;6492;48.128;8.320;2023-04-03T18:17:36;5.37;;;4.50;;
12846;SDS011;6492;48.128;8.320;2023-04-03T18:21:43;6.70;;;4.43;;
12846;SDS011;6492;48.128;8.320;2023-04-03T18:25:48;5.43;;;3.50;;
12846;SDS011;6492;48.128;8.320;2023-04-03T18:29:51;3.90;;;3.50;;
12846;SDS011;6492;48.128;8.320;2023-04-03T18:33:55;5.53;;;3.67;;
12846;SDS011;6492;48.128;8.320;2023-04-03T18:37:58;8.63;;;6.27;;
12846;SDS011;6492;48.128;8.320;2023-04-03T18:42:04;5.87;;;3.90;;
12846;SDS011;6492;48.128;8.320;2023-04-03T18:46:08;4.73;;;3.40;;
12846;SDS011;6492;48.128;8.320;2023-04-03T18:50:11;4.30;;;3.80;;
12846;SDS011;6492;48.128;8.320;2023-04-03T18:54:13;6.07;;;3.67;;
12846;SDS011;6492;48.128;8.320;2023-04-03T18:58:16;5.50;;;3.17;;
12846;SDS011;6492;48.128;8.320;2023-04-03T19:02:18;5.33;;;3.20;;
12846;SDS011;6492;48.128;8.320;2023-04-03T19:06:21;6.00;;;4.40;;
12846;SDS011;6492;48.128;8.320;2023-04-03T19:10:23;5.40;;;3.90;;
12846;SDS011;6492;48.128;8.320;2023-04-03T19:14:27;4.23;;;3.77;;
12846;SDS011;6492;48.128;8.320;2023-04-03T19:18:29;3.83;;;3.37;;
12846;SDS011;6492;48.128;8.320;2023-04-03T19:22:32;4.47;;;3.50;;
12846;SDS011;6492;48.128;8.320;2023-04-03T19:26:34;3.70;;;3.40;;
12846;SDS011;6492;48.128;8.320;2023-04-03T19:30:37;4.67;;;3.67;;
12846;SDS011;6492;48.128;8.320;2023-04-03T19:34:39;4.83;;;3.77;;
12846;SDS011;6492;48.128;8.320;2023-04-03T19:38:41;4.20;;;3.50;;
12846;SDS011;6492;48.128;8.320;2023-04-03T19:42:43;4.37;;;3.30;;
12846;SDS011;6492;48.128;8.320;2023-04-03T19:46:46;5.37;;;4.23;;
12846;SDS011;6492;48.128;8.320;2023-04-03T19:50:48;6.83;;;4.23;;
12846;SDS011;6492;48.128;8.320;2023-04-03T19:54:50;5.10;;;4.27;;
12846;SDS011;6492;48.128;8.320;2023-04-03T19:58:52;7.13;;;4.40;;
12846;SDS011;6492;48.128;8.320;2023-04-03T20:02:55;6.57;;;4.20;;
12846;SDS011;6492;48.128;8.320;2023-04-03T20:06:57;4.83;;;3.63;;
12846;SDS011;6492;48.128;8.320;2023-04-03T20:11:03;4.67;;;3.70;;
12846;SDS011;6492;48.128;8.320;2023-04-03T20:15:06;6.63;;;4.07;;
12846;SDS011;6492;48.128;8.320;2023-04-03T20:19:10;5.97;;;4.13;;
12846;SDS011;6492;48.128;8.320;2023-04-03T20:23:13;5.90;;;3.93;;
12846;SDS011;6492;48.128;8.320;2023-04-03T20:27:14;6.13;;;4.67;;
12846;SDS011;6492;48.128;8.320;2023-04-03T20:31:16;6.37;;;4.30;;
12846;SDS011;6492;48.128;8.320;2023-04-03T20:35:20;5.17;;;4.60;;
12846;SDS011;6492;48.128;8.320;2023-04-03T20:39:21;4.50;;;3.73;;
12846;SDS011;6492;48.128;8.320;2023-04-03T20:43:23;4.50;;;3.60;;
12846;SDS011;6492;48.128;8.320;2023-04-03T20:47:25;4.93;;;3.60;;
12846;SDS011;6492;48.128;8.320;2023-04-03T20:51:28;6.60;;;4.57;;
12846;SDS011;6492;48.128;8.320;2023-04-03T20:55:30;4.50;;;3.67;;
12846;SDS011;6492;48.128;8.320;2023-04-03T20:59:32;6.63;;;3.93;;
12846;SDS011;6492;48.128;8.320;2023-04-03T21:03:34;4.77;;;3.47;;
12846;SDS011;6492;48.128;8.320;2023-04-03T21:20:59;4.23;;;3.23;;
12846;SDS011;6492;48.128;8.320;2023-04-03T21:25:02;5.60;;;3.60;;
12846;SDS011;6492;48.128;8.320;2023-04-03T21:29:04;4.07;;;3.27;;
12846;SDS011;6492;48.128;8.320;2023-04-03T21:33:07;6.33;;;3.83;;
12846;SDS011;6492;48.128;8.320;2023-04-03T21:37:09;6.10;;;4.20;;
12846;SDS011;6492;48.128;8.320;2023-04-03T21:41:12;6.80;;;3.80;;
12846;SDS011;6492;48.128;8.320;2023-04-03T21:45:13;4.63;;;4.00;;
12846;SDS011;6492;48.128;8.320;2023-04-03T21:49:16;4.80;;;3.77;;
12846;SDS011;6492;48.128;8.320;2023-04-03T21:53:19;7.43;;;3.97;;
12846;SDS011;6492;48.128;8.320;2023-04-03T21:57:21;5.30;;;3.87;;
12846;SDS011;6492;48.128;8.320;2023-04-03T22:01:23;4.77;;;3.70;;
12846;SDS011;6492;48.128;8.320;2023-04-03T22:05:26;4.80;;;3.80;;
12846;SDS011;6492;48.128;8.320;2023-04-03T22:09:29;5.10;;;3.40;;
12846;SDS011;6492;48.128;8.320;2023-04-03T22:13:31;6.63;;;3.63;;
12846;SDS011;6492;48.128;8.320;2023-04-03T22:17:33;6.60;;;3.77;;
12846;SDS011;6492;48.128;8.320;2023-04-03T22:21:35;6.83;;;3.93;;
12846;SDS011;6492;48.128;8.320;2023-04-03T22:25:38;7.07;;;3.60;;
12846;SDS011;6492;48.128;8.320;2023-04-03T22:29:40;4.13;;;3.40;;
12846;SDS011;6492;48.128;8.320;2023-04-03T22:33:42;7.93;;;3.87;;
12846;SDS011;6492;48.128;8.320;2023-04-03T22:37:45;4.43;;;3.57;;
12846;SDS011;6492;48.128;8.320;2023-04-03T22:41:48;4.60;;;3.30;;
12846;SDS011;6492;48.128;8.320;2023-04-03T22:45:51;5.70;;;3.50;;
12846;SDS011;6492;48.128;8.320;2023-04-03T22:49:53;4.43;;;3.40;;
12846;SDS011;6492;48.128;8.320;2023-04-03T22:53:55;4.97;;;3.50;;
12846;SDS011;6492;48.128;8.320;2023-04-03T22:57:58;5.90;;;3.50;;
12846;SDS011;6492;48.128;8.320;2023-04-03T23:02:00;4.63;;;3.53;;
12846;SDS011;6492;48.128;8.320;2023-04-03T23:06:02;5.77;;;3.67;;
12846;SDS011;6492;48.128;8.320;2023-04-03T23:10:04;5.33;;;3.40;;
12846;SDS011;6492;48.128;8.320;2023-04-03T23:14:08;5.10;;;3.93;;
12846;SDS011;6492;48.128;8.320;2023-04-03T23:18:10;5.10;;;3.70;;
12846;SDS011;6492;48.128;8.320;2023-04-03T23:22:12;4.57;;;3.80;;
12846;SDS011;6492;48.128;8.320;2023-04-03T23:26:14;4.70;;;3.63;;
12846;SDS011;6492;48.128;8.320;2023-04-03T23:30:17;4.57;;;3.57;;
12846;SDS011;6492;48.128;8.320;2023-04-03T23:34:22;7.07;;;3.80;;
12846;SDS011;6492;48.128;8.320;2023-04-03T23:38:23;6.43;;;3.60;;
12846;SDS011;6492;48.128;8.320;2023-04-03T23:42:25;6.03;;;3.53;;
12846;SDS011;6492;48.128;8.320;2023-04-03T23:46:29;4.63;;;3.50;;
12846;SDS011;6492;48.128;8.320;2023-04-03T23:50:31;5.53;;;3.70;;
12846;SDS011;6492;48.128;8.320;2023-04-03T23:54:33;4.70;;;3.37;;
12846;SDS011;6492;48.128;8.320;2023-04-03T23:58:35;5.27;;;3.63;;
